Time;durP1;ratioP1;P1;durP2;ratioP2;P2;SDS_P1;SDS_P2;PMS_P1;PMS_P2;Temp;Humidity;BMP_temperature;BMP_pressure;BME280_temperature;BME280_humidity;BME280_pressure;Samples;Min_cycle;Max_cycle;Signal;HPM_P1;HPM_P2
2022/06/19 00:01:55;;;;;;;6.75;5.18;;;23.70;96.60;;;;;;4966537;28;20244;-70
2022/06/19 00:04:21;;;;;;;8.25;5.20;;;23.70;96.80;;;;;;4967995;28;20186;-64
2022/06/19 00:06:47;;;;;;;6.55;5.07;;;23.60;97.10;;;;;;4966223;28;20206;-64
2022/06/19 00:09:12;;;;;;;6.47;5.07;;;23.60;97.50;;;;;;4967886;28;20611;-62
2022/06/19 00:11:39;;;;;;;9.80;5.57;;;23.60;97.70;;;;;;4965850;28;20313;-63
2022/06/19 00:14:05;;;;;;;9.60;6.20;;;23.60;97.70;;;;;;4967759;28;20200;-63
2022/06/19 00:16:31;;;;;;;8.90;5.68;;;23.60;98.10;;;;;;4965364;28;20272;-64
2022/06/19 00:18:57;;;;;;;10.88;6.00;;;23.60;97.70;;;;;;4967902;28;20193;-65
2022/06/19 00:21:23;;;;;;;12.07;6.07;;;23.60;97.70;;;;;;4965917;28;20201;-70
2022/06/19 00:23:48;;;;;;;9.25;5.78;;;23.60;97.80;;;;;;4966797;28;20289;-67
2022/06/19 00:26:15;;;;;;;7.70;5.22;;;23.60;99.20;;;;;;4964154;28;20285;-67
2022/06/19 00:28:41;;;;;;;11.35;6.65;;;23.50;99.50;;;;;;4965813;28;20244;-70
2022/06/19 00:31:07;;;;;;;8.18;6.13;;;23.40;99.90;;;;;;4964252;28;20704;-70
2022/06/19 00:33:34;;;;;;;7.65;6.95;;;23.40;99.90;;;;;;4964063;28;20293;-72
2022/06/19 00:36:00;;;;;;;6.43;5.75;;;23.20;99.90;;;;;;4965691;28;20265;-66
2022/06/19 00:38:25;;;;;;;7.82;7.10;;;23.00;99.90;;;;;;4960957;28;20630;-68
2022/06/19 00:40:56;;;;;;;7.45;6.22;;;23.00;99.90;;;;;;4965372;28;20221;-67
2022/06/19 00:43:22;;;;;;;9.48;6.47;;;22.80;99.90;;;;;;4959518;28;20671;-67
2022/06/19 00:45:51;;;;;;;7.97;6.05;;;22.80;99.90;;;;;;4968297;28;20216;-69
2022/06/19 00:48:25;;;;;;;5.82;5.25;;;22.90;99.90;;;;;;4966990;28;20252;-69
2022/06/19 00:50:53;;;;;;;8.35;5.35;;;22.90;99.90;;;;;;4972143;28;20239;-71
2022/06/19 00:53:37;;;;;;;8.10;5.13;;;22.90;99.90;;;;;;4972131;28;20694;-69
2022/06/19 00:56:04;;;;;;;5.75;5.25;;;22.90;99.90;;;;;;4975269;28;20182;-67
2022/06/19 00:58:34;;;;;;;5.55;5.10;;;23.00;99.90;;;;;;4973606;28;20213;-68
2022/06/19 01:01:07;;;;;;;7.47;6.05;;;23.20;99.90;;;;;;4973326;28;20251;-68
2022/06/19 01:03:53;;;;;;;5.75;4.65;;;23.30;99.90;;;;;;4974807;28;20205;-67
2022/06/19 01:06:21;;;;;;;12.82;5.82;;;23.20;99.90;;;;;;4973845;28;20190;-67
2022/06/19 01:08:47;;;;;;;8.85;5.38;;;23.20;99.90;;;;;;4970153;28;20677;-67
2022/06/19 01:11:14;;;;;;;8.35;6.35;;;23.10;99.90;;;;;;4974636;28;20185;-67
2022/06/19 01:13:39;;;;;;;5.55;5.05;;;23.00;99.90;;;;;;4970009;28;20219;-67
2022/06/19 01:16:07;;;;;;;9.83;5.97;;;23.00;99.90;;;;;;4968122;28;20536;-67
2022/06/19 01:18:33;;;;;;;7.53;5.32;;;23.00;99.90;;;;;;4970124;28;20221;-68
2022/06/19 01:21:06;;;;;;;7.23;5.20;;;23.00;99.90;;;;;;4966958;28;20200;-68
2022/06/19 01:23:46;;;;;;;5.93;5.40;;;23.00;99.90;;;;;;4955742;28;20206;-66
2022/06/19 01:26:14;;;;;;;6.00;5.50;;;23.10;99.90;;;;;;4947486;29;20217;-66
2022/06/19 01:28:54;;;;;;;7.18;5.50;;;23.10;99.90;;;;;;4964363;28;20568;-67
2022/06/19 01:31:26;;;;;;;6.65;4.97;;;23.00;99.90;;;;;;4963597;28;20664;-65
2022/06/19 01:33:59;;;;;;;7.50;5.72;;;23.00;99.90;;;;;;4958055;28;20201;-66
2022/06/19 01:36:26;;;;;;;8.07;4.82;;;23.00;99.90;;;;;;4952029;28;20189;-66
2022/06/19 01:38:54;;;;;;;5.40;4.90;;;23.10;99.90;;;;;;4964554;28;20577;-67
2022/06/19 01:41:30;;;;;;;5.43;4.53;;;23.00;99.90;;;;;;4966467;28;20763;-66
2022/06/19 01:43:56;;;;;;;12.20;5.97;;;22.90;99.90;;;;;;4958248;28;20324;-67
2022/06/19 01:46:23;;;;;;;7.20;5.15;;;22.90;99.90;;;;;;4966124;28;20200;-66
2022/06/19 01:48:49;;;;;;;8.80;5.15;;;22.90;99.90;;;;;;4964427;28;20233;-66
2022/06/19 01:51:15;;;;;;;7.22;6.30;;;22.90;99.90;;;;;;4966326;28;20228;-66
2022/06/19 01:53:53;;;;;;;6.45;5.70;;;22.80;99.90;;;;;;4964175;28;20198;-67
2022/06/19 01:56:19;;;;;;;8.18;5.68;;;22.90;99.90;;;;;;4947494;29;20194;-66
2022/06/19 01:58:49;;;;;;;6.32;5.43;;;22.90;99.90;;;;;;4963645;28;20260;-67
2022/06/19 02:01:15;;;;;;;5.97;5.47;;;22.80;99.90;;;;;;4965859;28;20300;-68
2022/06/19 02:03:46;;;;;;;5.73;5.07;;;22.90;99.90;;;;;;4956595;28;20201;-67
2022/06/19 02:06:14;;;;;;;5.50;4.88;;;22.80;99.90;;;;;;4949695;28;20617;-68
2022/06/19 02:08:40;;;;;;;5.80;5.35;;;22.70;99.90;;;;;;4964272;28;20691;-67
2022/06/19 02:11:08;;;;;;;8.18;6.57;;;22.60;99.90;;;;;;4965884;28;20194;-68
2022/06/19 02:13:35;;;;;;;5.53;4.57;;;22.50;99.90;;;;;;4959023;28;20269;-68
2022/06/19 02:16:05;;;;;;;6.60;5.32;;;22.70;99.90;;;;;;4969813;28;20201;-58
2022/06/19 02:18:35;;;;;;;5.00;4.43;;;22.60;99.90;;;;;;4968477;28;20348;-68
2022/06/19 02:21:02;;;;;;;6.87;5.33;;;22.60;99.90;;;;;;4952709;28;20963;-67
2022/06/19 02:23:37;;;;;;;7.37;5.33;;;22.60;99.90;;;;;;4968081;28;20213;-67
2022/06/19 02:26:05;;;;;;;6.50;4.65;;;22.60;99.90;;;;;;4956617;28;20524;-66
2022/06/19 02:28:32;;;;;;;5.53;4.82;;;22.50;99.90;;;;;;4968712;28;20201;-66
2022/06/19 02:30:58;;;;;;;6.90;5.72;;;22.50;99.90;;;;;;4970398;28;20673;-66
2022/06/19 02:33:30;;;;;;;11.27;6.10;;;22.50;99.90;;;;;;4968473;28;20300;-67
2022/06/19 02:35:56;;;;;;;7.73;5.57;;;22.40;99.90;;;;;;4970271;28;20196;-66
2022/06/19 02:38:22;;;;;;;6.37;5.70;;;22.50;99.90;;;;;;4967323;28;20214;-67
2022/06/19 02:41:02;;;;;;;6.77;5.73;;;22.40;99.90;;;;;;4969571;28;20218;-66
2022/06/19 02:43:31;;;;;;;5.88;5.00;;;22.40;99.90;;;;;;4962832;28;20201;-67
2022/06/19 02:45:57;;;;;;;5.38;4.97;;;22.50;99.90;;;;;;4969359;28;20281;-67
2022/06/19 02:48:24;;;;;;;6.97;5.63;;;22.40;99.90;;;;;;4967628;28;20296;-67
2022/06/19 02:50:50;;;;;;;7.07;6.35;;;22.50;99.90;;;;;;4969679;28;20284;-67
2022/06/19 02:53:17;;;;;;;8.63;5.78;;;22.40;99.90;;;;;;4967885;28;20205;-67
2022/06/19 02:55:42;;;;;;;9.13;5.73;;;22.30;99.90;;;;;;4969631;28;20237;-66
2022/06/19 02:58:09;;;;;;;6.47;5.70;;;22.30;99.90;;;;;;4967551;28;20234;-69
2022/06/19 03:00:35;;;;;;;5.83;5.33;;;22.20;99.90;;;;;;4969222;28;20237;-69
2022/06/19 03:03:06;;;;;;;8.32;6.40;;;22.20;99.90;;;;;;4967683;28;20566;-70
2022/06/19 03:05:32;;;;;;;6.47;5.70;;;22.10;99.90;;;;;;4969782;28;20215;-70
2022/06/19 03:07:57;;;;;;;6.85;6.15;;;22.30;99.90;;;;;;4966950;28;20210;-70
2022/06/19 03:10:23;;;;;;;6.57;5.97;;;22.30;99.90;;;;;;4969373;28;20201;-70
2022/06/19 03:12:49;;;;;;;7.67;6.70;;;22.20;99.90;;;;;;4967979;28;20241;-67
2022/06/19 03:15:16;;;;;;;9.30;6.30;;;22.20;99.90;;;;;;4975608;28;20289;-70
2022/06/19 03:17:41;;;;;;;8.97;5.83;;;22.20;99.90;;;;;;4966722;28;20249;-67
2022/06/19 03:20:11;;;;;;;8.40;6.10;;;22.40;99.90;;;;;;4969143;28;20220;-67
2022/06/19 03:22:36;;;;;;;6.20;5.60;;;22.30;99.90;;;;;;4966863;28;20209;-68
2022/06/19 03:25:02;;;;;;;6.13;5.47;;;22.20;99.90;;;;;;4967996;28;20265;-68
2022/06/19 03:27:28;;;;;;;6.80;6.07;;;22.20;99.90;;;;;;4967082;28;20834;-68
2022/06/19 03:29:53;;;;;;;6.93;5.73;;;22.40;99.90;;;;;;4968984;28;20272;-68
2022/06/19 03:32:19;;;;;;;6.00;5.30;;;22.40;99.90;;;;;;4966859;28;20201;-66
2022/06/19 03:34:44;;;;;;;6.40;5.90;;;22.40;99.90;;;;;;4968834;28;20189;-69
2022/06/19 03:37:11;;;;;;;7.80;6.83;;;22.40;99.90;;;;;;4966908;28;20312;-68
2022/06/19 03:39:37;;;;;;;9.05;6.10;;;22.40;99.90;;;;;;4968681;28;20637;-67
2022/06/19 03:42:03;;;;;;;6.67;6.07;;;22.40;99.90;;;;;;4966763;28;20301;-68
2022/06/19 03:44:29;;;;;;;10.97;9.03;;;22.30;99.90;;;;;;4968965;28;20189;-67
2022/06/19 03:46:54;;;;;;;6.70;6.10;;;22.20;99.90;;;;;;4966582;28;20286;-68
2022/06/19 03:49:20;;;;;;;9.47;6.00;;;22.20;99.90;;;;;;4968691;28;20205;-67
2022/06/19 03:51:46;;;;;;;8.03;6.03;;;22.20;99.90;;;;;;4967367;28;20232;-67
2022/06/19 03:54:11;;;;;;;9.03;7.27;;;22.30;99.90;;;;;;4959462;28;20271;-67
2022/06/19 03:56:37;;;;;;;10.97;6.57;;;22.40;99.90;;;;;;4968185;28;20703;-67
2022/06/19 03:59:04;;;;;;;9.07;6.40;;;22.40;99.90;;;;;;4966685;28;20667;-68
2022/06/19 04:01:35;;;;;;;7.32;6.63;;;22.30;99.90;;;;;;4968303;28;20350;-68
2022/06/19 04:04:00;;;;;;;7.70;6.85;;;22.30;99.90;;;;;;4966479;28;20341;-67
2022/06/19 04:06:31;;;;;;;7.35;6.72;;;22.30;99.90;;;;;;4968046;28;20610;-67
2022/06/19 04:08:58;;;;;;;8.02;6.32;;;22.40;99.90;;;;;;4966484;28;20660;-67
2022/06/19 04:11:25;;;;;;;7.35;6.75;;;22.40;99.90;;;;;;4968102;28;20190;-67
2022/06/19 04:13:54;;;;;;;7.93;6.13;;;22.50;99.90;;;;;;4966047;28;20681;-69
2022/06/19 04:16:22;;;;;;;9.48;7.35;;;22.50;99.90;;;;;;4967528;28;20189;-68
2022/06/19 04:18:49;;;;;;;12.57;6.70;;;22.40;99.90;;;;;;4966385;28;21017;-68
2022/06/19 04:21:17;;;;;;;8.38;7.00;;;22.40;99.90;;;;;;4968079;28;20189;-67
2022/06/19 04:23:43;;;;;;;6.83;6.10;;;22.60;99.90;;;;;;4966307;28;20202;-67
2022/06/19 04:26:10;;;;;;;7.97;7.28;;;22.70;99.90;;;;;;4968186;28;20190;-66
2022/06/19 04:28:36;;;;;;;9.13;6.95;;;22.70;99.90;;;;;;4966297;28;20201;-67
2022/06/19 04:31:02;;;;;;;7.95;7.13;;;22.90;99.90;;;;;;4967749;28;20252;-68
2022/06/19 04:33:28;;;;;;;9.53;7.10;;;22.90;99.90;;;;;;4965840;28;20197;-67
2022/06/19 04:35:56;;;;;;;10.13;7.60;;;22.90;99.90;;;;;;4967412;28;20754;-68
2022/06/19 04:38:22;;;;;;;13.23;8.48;;;22.90;99.90;;;;;;4963823;28;20213;-68
2022/06/19 04:40:47;;;;;;;8.48;6.70;;;22.90;99.90;;;;;;4967332;28;20197;-68
2022/06/19 04:43:13;;;;;;;10.40;8.10;;;23.00;99.90;;;;;;4965790;28;20206;-68
2022/06/19 04:45:39;;;;;;;8.00;7.03;;;22.90;99.90;;;;;;4967388;28;20198;-67
2022/06/19 04:48:06;;;;;;;10.77;8.00;;;22.90;99.90;;;;;;4965197;28;20215;-67
2022/06/19 04:50:31;;;;;;;15.38;8.30;;;22.80;99.90;;;;;;4967404;28;20276;-68
2022/06/19 04:52:57;;;;;;;10.70;8.73;;;22.80;99.90;;;;;;4965399;28;20372;-67
2022/06/19 04:55:23;;;;;;;8.73;7.53;;;22.90;99.90;;;;;;4967497;28;20202;-67
2022/06/19 04:57:48;;;;;;;11.07;9.27;;;23.00;99.90;;;;;;4965528;28;20244;-68
2022/06/19 05:00:16;;;;;;;9.73;8.15;;;23.00;99.90;;;;;;4966871;28;20230;-68
2022/06/19 05:02:42;;;;;;;8.80;8.02;;;23.10;99.90;;;;;;4965437;28;20234;-68
2022/06/19 05:05:13;;;;;;;9.80;8.65;;;23.20;99.90;;;;;;4966893;28;20191;-69
2022/06/19 05:07:38;;;;;;;9.75;7.70;;;23.10;99.90;;;;;;4965107;28;20209;-68
2022/06/19 05:10:04;;;;;;;11.18;9.52;;;23.20;99.90;;;;;;4966986;28;20529;-68
2022/06/19 05:12:30;;;;;;;9.35;8.18;;;23.20;99.90;;;;;;4965199;28;20219;-70
2022/06/19 05:14:55;;;;;;;9.60;8.65;;;23.20;99.90;;;;;;4966874;28;20237;-70
2022/06/19 05:17:21;;;;;;;12.32;8.27;;;23.30;99.90;;;;;;4964716;28;20635;-69
2022/06/19 05:19:46;;;;;;;10.23;8.02;;;23.40;99.90;;;;;;4975503;28;20181;-68
2022/06/19 05:22:12;;;;;;;10.63;8.45;;;23.40;99.90;;;;;;4968212;28;20200;-72
2022/06/19 05:24:37;;;;;;;14.88;9.43;;;23.50;99.90;;;;;;4966910;28;20224;-72
2022/06/19 05:27:09;;;;;;;9.30;8.40;;;23.50;99.90;;;;;;4968378;28;20196;-72
2022/06/19 05:29:35;;;;;;;11.48;8.35;;;23.60;99.90;;;;;;4982779;28;20190;-70
2022/06/19 05:32:01;;;;;;;12.23;8.23;;;23.60;99.90;;;;;;4969572;28;20540;-71
2022/06/19 05:34:26;;;;;;;10.48;7.90;;;23.60;99.90;;;;;;4960054;28;20237;-72
2022/06/19 05:36:52;;;;;;;9.10;7.18;;;23.60;99.90;;;;;;4960598;28;20717;-72
2022/06/19 05:39:17;;;;;;;15.52;8.52;;;23.70;99.90;;;;;;4961138;28;20223;-72
2022/06/19 05:41:43;;;;;;;15.32;8.80;;;23.80;99.90;;;;;;4966862;28;20182;-70
2022/06/19 05:44:11;;;;;;;11.70;8.65;;;23.80;99.90;;;;;;4964598;28;20375;-70
2022/06/19 05:46:36;;;;;;;8.48;6.95;;;23.90;99.90;;;;;;4966088;28;20197;-70
2022/06/19 05:49:02;;;;;;;9.45;7.35;;;23.90;99.90;;;;;;4964475;28;20201;-72
2022/06/19 05:51:27;;;;;;;13.75;8.43;;;24.10;99.70;;;;;;4966211;28;20205;-71
2022/06/19 05:53:56;;;;;;;12.00;7.97;;;24.20;99.90;;;;;;4964631;28;20249;-70
2022/06/19 05:56:22;;;;;;;15.82;8.00;;;24.20;99.30;;;;;;4966354;28;20258;-73
2022/06/19 05:58:48;;;;;;;9.70;7.55;;;24.20;99.00;;;;;;4964321;28;20706;-76
2022/06/19 06:01:16;;;;;;;8.95;6.63;;;24.30;99.30;;;;;;4965946;28;20301;-73
2022/06/19 06:03:44;;;;;;;9.20;7.45;;;24.40;98.40;;;;;;4969973;28;20653;-74
2022/06/19 06:06:19;;;;;;;11.80;8.85;;;24.50;98.00;;;;;;4969936;28;20211;-74
2022/06/19 06:08:45;;;;;;;10.80;7.35;;;24.70;97.80;;;;;;4973378;28;20271;-72
2022/06/19 06:11:11;;;;;;;13.35;7.47;;;24.80;97.30;;;;;;4976429;28;20199;-71
2022/06/19 06:13:36;;;;;;;13.80;7.75;;;24.80;97.20;;;;;;4974623;28;20210;-72
2022/06/19 06:16:02;;;;;;;11.45;7.55;;;24.90;97.10;;;;;;4962832;28;20285;-70
2022/06/19 06:18:28;;;;;;;12.25;8.20;;;25.00;96.60;;;;;;4970559;28;20215;-76
2022/06/19 06:20:59;;;;;;;12.80;7.78;;;25.10;96.30;;;;;;4973517;28;20186;-71
2022/06/19 06:23:26;;;;;;;16.48;7.95;;;25.10;96.10;;;;;;4974284;28;20223;-74
2022/06/19 06:26:02;;;;;;;13.93;6.97;;;25.20;95.80;;;;;;4966966;28;20203;-73
2022/06/19 06:28:29;;;;;;;9.32;7.15;;;25.30;95.50;;;;;;4971783;28;20245;-73
2022/06/19 06:30:55;;;;;;;12.45;7.30;;;25.30;95.30;;;;;;4972136;28;20211;-71
2022/06/19 06:33:20;;;;;;;14.63;8.00;;;25.40;95.20;;;;;;4973250;28;20202;-75
2022/06/19 06:35:46;;;;;;;10.98;7.45;;;25.60;95.00;;;;;;4972697;28;20288;-74
2022/06/19 06:38:12;;;;;;;12.95;7.20;;;25.70;94.40;;;;;;4963394;28;20873;-66
2022/06/19 06:40:37;;;;;;;14.13;8.95;;;25.70;94.10;;;;;;4970165;28;20296;-67
2022/06/19 06:43:03;;;;;;;9.75;7.15;;;25.90;94.00;;;;;;4964760;28;20209;-86
2022/06/19 06:45:28;;;;;;;9.13;6.90;;;26.00;93.30;;;;;;4966041;28;20196;-66
2022/06/19 06:47:53;;;;;;;11.40;6.45;;;26.10;93.20;;;;;;4963681;28;20307;-65
2022/06/19 06:50:19;;;;;;;12.25;7.30;;;26.10;93.10;;;;;;4966620;28;20364;-66
2022/06/19 06:52:45;;;;;;;16.33;7.15;;;26.20;92.40;;;;;;4973440;28;20199;-67
2022/06/19 06:55:11;;;;;;;16.33;7.72;;;26.30;92.10;;;;;;4971864;28;20192;-66
2022/06/19 06:57:37;;;;;;;10.25;6.90;;;26.40;92.10;;;;;;4969097;28;20224;-65
2022/06/19 07:00:05;;;;;;;13.07;7.28;;;26.50;92.00;;;;;;4978790;28;20242;-65
2022/06/19 07:02:30;;;;;;;13.18;6.93;;;26.60;91.60;;;;;;4975056;28;20199;-67
2022/06/19 07:04:56;;;;;;;8.98;6.30;;;26.70;91.50;;;;;;4989313;28;20207;-66
2022/06/19 07:07:21;;;;;;;12.02;7.15;;;26.90;91.20;;;;;;4967868;28;20946;-66
2022/06/19 07:09:47;;;;;;;7.00;6.30;;;27.00;90.90;;;;;;4972632;28;20251;-65
2022/06/19 07:12:12;;;;;;;24.10;7.70;;;27.10;90.60;;;;;;4973234;28;20212;-66
2022/06/19 07:14:37;;;;;;;13.73;7.05;;;27.20;90.40;;;;;;4972687;28;20205;-66
2022/06/19 07:17:03;;;;;;;13.23;6.57;;;27.30;90.10;;;;;;4978539;28;20627;-67
2022/06/19 07:19:29;;;;;;;12.30;6.75;;;27.40;89.00;;;;;;4979844;28;20176;-65
2022/06/19 07:21:54;;;;;;;11.43;6.30;;;27.50;87.80;;;;;;4975336;28;20267;-64
2022/06/19 07:24:20;;;;;;;11.82;6.43;;;27.60;85.60;;;;;;4975890;28;20174;-65
2022/06/19 07:26:45;;;;;;;14.07;5.60;;;27.70;85.50;;;;;;4975442;28;20303;-65
2022/06/19 07:29:11;;;;;;;9.20;5.63;;;27.80;85.70;;;;;;4974088;28;20288;-66
2022/06/19 07:31:37;;;;;;;17.33;6.53;;;27.90;84.90;;;;;;4974832;28;20192;-66
2022/06/19 07:34:03;;;;;;;14.57;6.47;;;28.00;83.30;;;;;;4979052;28;20271;-66
2022/06/19 07:36:29;;;;;;;8.85;5.60;;;28.20;82.40;;;;;;4975503;28;20672;-67
2022/06/19 07:38:55;;;;;;;12.30;5.80;;;28.30;81.40;;;;;;4974198;28;20227;-66
2022/06/19 07:41:20;;;;;;;7.32;5.63;;;28.40;80.00;;;;;;4976993;28;20189;-65
2022/06/19 07:43:46;;;;;;;11.73;5.72;;;28.50;79.80;;;;;;4975915;28;20202;-66
2022/06/19 07:46:13;;;;;;;10.32;5.63;;;28.60;78.10;;;;;;4976557;28;20902;-65
2022/06/19 07:51:25;;;;;;;12.45;5.35;;;28.90;76.30;;;;;;4976455;28;20554;-65
2022/06/19 07:53:51;;;;;;;10.30;5.25;;;29.10;75.50;;;;;;4975100;28;21001;-66
2022/06/19 07:56:16;;;;;;;12.95;4.53;;;29.20;74.60;;;;;;4976569;28;20201;-66
2022/06/19 07:58:41;;;;;;;10.73;5.28;;;29.30;73.60;;;;;;4978213;28;20265;-66
2022/06/19 08:01:07;;;;;;;13.82;6.00;;;29.40;73.90;;;;;;4977182;28;20232;-66
2022/06/19 08:03:32;;;;;;;20.77;7.65;;;29.50;72.60;;;;;;4977028;28;20547;-68
2022/06/19 08:05:58;;;;;;;17.08;6.45;;;29.60;72.00;;;;;;4968254;28;20205;-67
2022/06/19 08:08:26;;;;;;;10.27;6.30;;;29.80;71.90;;;;;;4966304;28;20209;-73
2022/06/19 08:10:54;;;;;;;12.15;7.15;;;29.90;70.30;;;;;;4970226;28;20597;-67
2022/06/19 08:13:21;;;;;;;10.48;6.40;;;30.00;69.60;;;;;;4966731;28;20280;-69
2022/06/19 08:15:49;;;;;;;12.73;8.48;;;30.10;68.30;;;;;;4968026;28;20194;-66
2022/06/19 08:18:15;;;;;;;14.60;7.60;;;30.20;68.20;;;;;;4965992;28;20222;-66
2022/06/19 08:20:40;;;;;;;14.32;7.07;;;30.20;67.90;;;;;;4967980;28;20198;-71
2022/06/19 08:23:06;;;;;;;8.55;7.75;;;30.30;67.50;;;;;;4967246;28;20217;-68
2022/06/19 08:25:31;;;;;;;17.65;8.88;;;30.30;67.10;;;;;;4975285;28;20181;-67
2022/06/19 08:27:57;;;;;;;12.48;8.80;;;30.50;64.90;;;;;;4970772;28;20206;-69
2022/06/19 08:30:28;;;;;;;14.77;7.78;;;30.60;64.50;;;;;;4972479;28;20222;-68
2022/06/19 08:32:53;;;;;;;15.55;8.02;;;30.70;64.60;;;;;;4972970;28;20485;-68
2022/06/19 08:35:20;;;;;;;14.52;7.50;;;30.80;62.40;;;;;;4972599;28;20694;-70
2022/06/19 08:37:50;;;;;;;15.65;8.82;;;31.00;61.90;;;;;;4971779;28;20304;-68
2022/06/19 08:40:34;;;;;;;13.07;8.05;;;31.20;60.00;;;;;;4976655;28;20264;-69
2022/06/19 08:43:11;;;;;;;12.00;8.77;;;31.30;59.20;;;;;;4974309;28;20711;-76
2022/06/19 08:45:58;;;;;;;9.95;7.57;;;31.50;59.10;;;;;;4961185;28;20186;-72
2022/06/19 08:48:53;;;;;;;20.83;8.65;;;31.60;58.50;;;;;;4959764;28;20566;-73
2022/06/19 08:51:32;;;;;;;16.13;7.43;;;31.60;58.00;;;;;;4975978;28;20197;-72
2022/06/19 08:54:23;;;;;;;13.25;6.70;;;31.80;57.30;;;;;;4964044;28;20663;-71
2022/06/19 08:57:00;;;;;;;12.07;5.72;;;31.80;56.80;;;;;;4953334;28;20284;-72
2022/06/19 08:59:47;;;;;;;13.52;6.10;;;31.90;57.00;;;;;;4967467;28;20264;-71
2022/06/19 09:02:32;;;;;;;7.40;4.45;;;32.00;56.10;;;;;;4952340;28;20225;-71
2022/06/19 09:05:44;;;;;;;11.73;5.45;;;32.10;56.50;;;;;;4967129;28;20731;-72
2022/06/19 09:08:29;;;;;;;10.95;4.85;;;32.30;55.10;;;;;;4956616;28;20301;-71
2022/06/19 09:11:22;;;;;;;11.32;4.70;;;32.40;54.20;;;;;;4947895;28;20209;-71
2022/06/19 09:14:22;;;;;;;14.00;5.10;;;32.50;53.90;;;;;;4946083;28;20203;-71
2022/06/19 09:17:11;;;;;;;17.33;5.38;;;32.60;52.80;;;;;;4965265;28;20284;-70
2022/06/19 09:19:51;;;;;;;14.48;5.57;;;32.70;52.30;;;;;;4965369;28;20196;-70
2022/06/19 09:22:41;;;;;;;12.68;5.18;;;32.70;52.60;;;;;;4964223;28;20209;-73
2022/06/19 09:25:25;;;;;;;18.85;6.43;;;32.70;51.70;;;;;;4966731;28;20699;-73
2022/06/19 09:27:53;;;;;;;15.63;4.72;;;32.80;51.10;;;;;;4957469;28;20225;-72
2022/06/19 09:30:29;;;;;;;14.75;4.20;;;33.10;51.30;;;;;;4966840;28;20204;-72
2022/06/19 09:33:26;;;;;;;11.65;4.43;;;33.20;49.70;;;;;;4957949;28;20665;-71
2022/06/19 09:36:08;;;;;;;15.43;5.70;;;33.10;49.20;;;;;;4966138;28;20237;-70
2022/06/19 09:39:00;;;;;;;17.30;5.60;;;33.20;49.20;;;;;;4963370;28;20248;-73
2022/06/19 09:41:36;;;;;;;13.25;4.75;;;33.20;47.70;;;;;;4946468;28;20205;-73
2022/06/19 09:44:11;;;;;;;31.85;9.40;;;33.30;47.20;;;;;;4966584;28;20181;-77
2022/06/19 09:46:56;;;;;;;184.23;167.50;;;33.20;46.70;;;;;;4958873;28;20647;-77
2022/06/19 09:49:31;;;;;;;20.75;8.00;;;33.20;47.00;;;;;;4966622;28;20268;-78
2022/06/19 09:52:22;;;;;;;23.17;6.93;;;33.30;46.90;;;;;;4949866;28;20699;-78
2022/06/19 09:54:53;;;;;;;22.52;7.70;;;33.30;47.00;;;;;;4965628;28;20276;-78
2022/06/19 09:57:21;;;;;;;20.35;6.18;;;33.30;46.60;;;;;;4953195;28;20225;-78
2022/06/19 10:00:09;;;;;;;11.77;4.72;;;33.30;46.60;;;;;;4966016;28;20193;-78
2022/06/19 10:02:48;;;;;;;15.40;6.47;;;33.30;46.80;;;;;;4958512;28;20756;-77
2022/06/19 10:05:19;;;;;;;17.90;5.07;;;33.30;46.80;;;;;;4947267;29;20553;-78
2022/06/19 10:07:55;;;;;;;11.75;4.60;;;33.40;46.50;;;;;;4964037;28;20870;-75
2022/06/19 10:10:35;;;;;;;15.35;4.65;;;33.50;46.50;;;;;;4954590;28;20235;-75
2022/06/19 10:13:06;;;;;;;13.38;4.20;;;33.50;46.50;;;;;;4958604;28;20205;-75
2022/06/19 10:15:35;;;;;;;10.35;3.75;;;33.50;46.20;;;;;;4947276;28;20567;-76
2022/06/19 10:18:12;;;;;;;20.55;5.57;;;33.50;46.20;;;;;;4964303;28;20240;-76
2022/06/19 10:21:04;;;;;;;12.25;5.90;;;33.60;46.00;;;;;;4947236;29;20192;-76
2022/06/19 10:23:57;;;;;;;14.75;4.30;;;33.50;45.90;;;;;;4962178;28;20193;-76
2022/06/19 10:26:23;;;;;;;13.13;5.30;;;33.70;46.00;;;;;;4945579;28;20194;-76
2022/06/19 10:29:10;;;;;;;10.43;4.30;;;33.80;45.70;;;;;;4966614;28;20170;-76
2022/06/19 10:32:01;;;;;;;12.80;4.50;;;33.80;45.70;;;;;;4963603;28;20676;-75
2022/06/19 10:34:48;;;;;;;13.20;4.28;;;33.80;46.20;;;;;;4968791;28;20194;-75
2022/06/19 10:37:54;;;;;;;17.92;5.25;;;33.80;45.80;;;;;;4953708;28;20217;-75
2022/06/19 10:40:52;;;;;;;14.88;5.25;;;34.00;45.70;;;;;;4954133;28;20200;-76
2022/06/19 10:43:36;;;;;;;14.02;4.60;;;34.00;45.50;;;;;;4956489;28;20738;-76
2022/06/19 10:46:08;;;;;;;16.77;4.97;;;34.10;45.10;;;;;;4969828;28;20184;-77
2022/06/19 10:48:45;;;;;;;11.60;4.90;;;34.10;44.90;;;;;;4967548;28;20209;-76
2022/06/19 10:51:34;;;;;;;11.93;4.20;;;34.10;45.20;;;;;;4964974;28;20531;-83
2022/06/19 10:54:26;;;;;;;10.52;4.53;;;34.30;44.90;;;;;;4975997;28;20184;-81
2022/06/19 10:57:15;;;;;;;13.90;4.72;;;34.50;44.60;;;;;;4975251;28;20263;-81
2022/06/19 10:59:40;;;;;;;10.50;4.20;;;34.60;44.30;;;;;;4977197;28;20185;-81
2022/06/19 11:05:24;;;;;;;11.95;4.55;;;35.30;43.80;;;;;;4974323;28;20189;-80
2022/06/19 11:07:50;;;;;;;18.52;5.57;;;36.30;42.30;;;;;;4976704;28;20196;-79
2022/06/19 11:10:30;;;;;;;18.50;6.22;;;37.10;41.50;;;;;;4972289;28;20650;-80
2022/06/19 11:12:57;;;;;;;11.52;5.22;;;37.70;40.60;;;;;;4976600;28;20181;-86
2022/06/19 11:15:30;;;;;;;19.75;4.43;;;37.80;40.00;;;;;;4970041;28;20244;-80
2022/06/19 11:18:13;;;;;;;13.23;4.50;;;38.20;39.70;;;;;;4976575;28;20202;-82
2022/06/19 11:21:00;;;;;;;15.75;5.43;;;38.30;39.80;;;;;;4968449;28;20193;-81
2022/06/19 11:23:48;;;;;;;10.95;4.88;;;38.60;39.00;;;;;;4966630;28;20895;-83
2022/06/19 11:26:17;;;;;;;14.10;5.18;;;38.50;39.00;;;;;;4965760;28;20201;-82
2022/06/19 11:29:03;;;;;;;11.27;4.80;;;39.60;38.40;;;;;;4968230;28;20193;-85
2022/06/19 11:31:32;;;;;;;15.35;5.25;;;40.20;37.30;;;;;;4965611;28;20208;-80
2022/06/19 11:34:43;;;;;;;10.48;4.85;;;39.80;36.90;;;;;;4967612;28;20200;-81
2022/06/19 11:36:49;;;;;;;13.00;4.95;;;39.50;37.70;;;;;;4965195;28;20220;-82
2022/06/19 11:39:37;;;;;;;14.77;5.00;;;39.70;37.20;;;;;;4967719;28;20193;-83
2022/06/19 11:42:19;;;;;;;11.88;5.50;;;40.20;36.40;;;;;;4966514;28;20205;-81
2022/06/19 11:44:58;;;;;;;9.98;4.85;;;40.90;38.00;;;;;;4967055;28;20218;-80
2022/06/19 11:47:39;;;;;;;10.13;5.57;;;41.60;39.00;;;;;;4966472;28;20624;-79
2022/06/19 11:50:19;;;;;;;11.02;5.05;;;41.50;39.90;;;;;;4968323;28;20190;-80
2022/06/19 11:53:02;;;;;;;16.33;5.75;;;41.30;40.10;;;;;;4964680;28;20229;-77
2022/06/19 11:55:31;;;;;;;14.48;6.75;;;41.60;40.00;;;;;;4976979;28;20185;-78
2022/06/19 11:58:11;;;;;;;13.48;5.55;;;41.80;40.50;;;;;;4973832;28;20216;-77
2022/06/19 12:00:37;;;;;;;16.35;6.13;;;41.80;41.20;;;;;;4976677;28;20275;-78
2022/06/19 12:03:14;;;;;;;12.68;6.78;;;41.50;41.80;;;;;;4975218;28;20201;-78
2022/06/19 12:05:50;;;;;;;9.63;5.53;;;41.60;41.70;;;;;;4978940;28;20185;-78
2022/06/19 12:08:22;;;;;;;18.00;6.25;;;41.70;41.20;;;;;;4977187;28;20189;-81
2022/06/19 12:10:55;;;;;;;9.23;5.07;;;41.90;40.20;;;;;;4975095;28;20659;-78
2022/06/19 12:13:25;;;;;;;11.50;5.70;;;41.80;39.70;;;;;;4973816;28;20212;-80
2022/06/19 12:16:16;;;;;;;7.60;4.82;;;41.10;39.30;;;;;;4974538;28;20192;-79
2022/06/19 12:18:45;;;;;;;15.10;6.65;;;40.00;40.90;;;;;;4967821;28;20610;-80
2022/06/19 12:21:29;;;;;;;11.13;5.65;;;40.10;41.20;;;;;;4966414;28;20201;-79
2022/06/19 12:24:21;;;;;;;14.95;6.15;;;40.50;39.70;;;;;;4968361;28;20197;-79
2022/06/19 12:26:52;;;;;;;13.10;5.18;;;40.00;39.50;;;;;;4966475;28;20229;-78
2022/06/19 12:29:29;;;;;;;12.80;5.03;;;40.00;39.60;;;;;;4968215;28;20219;-79
2022/06/19 12:32:04;;;;;;;11.23;4.25;;;40.00;39.30;;;;;;4966206;28;20268;-76
2022/06/19 12:34:40;;;;;;;6.82;4.70;;;40.50;39.50;;;;;;4949336;29;20174;-77
2022/06/19 12:37:20;;;;;;;10.00;5.00;;;40.70;38.70;;;;;;4965767;28;20221;-76
2022/06/19 12:39:46;;;;;;;11.57;4.93;;;40.30;39.60;;;;;;4967698;28;20196;-79
2022/06/19 12:42:24;;;;;;;9.85;4.68;;;40.00;39.80;;;;;;4965747;28;20570;-78
2022/06/19 12:45:16;;;;;;;11.02;5.65;;;39.70;40.00;;;;;;4965305;28;20208;-79
2022/06/19 12:48:20;;;;;;;16.95;6.05;;;40.30;39.80;;;;;;4962764;28;20675;-78
2022/06/19 12:51:04;;;;;;;11.48;4.70;;;40.80;38.20;;;;;;4956439;28;20264;-79
2022/06/19 12:53:58;;;;;;;18.35;5.80;;;40.60;38.20;;;;;;4968154;28;20182;-78
2022/06/19 12:56:58;;;;;;;10.13;4.68;;;40.50;38.20;;;;;;4952324;28;20294;-79
2022/06/19 12:59:41;;;;;;;11.80;4.78;;;40.70;38.50;;;;;;4961539;28;20178;-79
2022/06/19 13:02:28;;;;;;;12.85;4.90;;;40.50;37.90;;;;;;4963451;28;20281;-78
2022/06/19 13:05:17;;;;;;;9.60;4.57;;;39.70;38.40;;;;;;4964155;28;20240;-79
2022/06/19 13:08:06;;;;;;;13.02;5.15;;;39.10;39.70;;;;;;4966195;28;20205;-78
2022/06/19 13:11:10;;;;;;;17.58;4.97;;;39.10;39.60;;;;;;4967809;28;20198;-79